Time;durP1;ratioP1;P1;durP2;ratioP2;P2;SDS_P1;SDS_P2;PMS_P1;PMS_P2;Temp;Humidity;BMP_temperature;BMP_pressure;BME280_temperature;BME280_humidity;BME280_pressure;Samples;Min_cycle;Max_cycle;Signal;HPM_P1;HPM_P2
2020/12/21 00:00:00;;;;;;;9.03;4.27;;;15.20;61.50;;;;;;5074287;28;20445;-53
2020/12/21 00:02:28;;;;;;;10.27;3.97;;;15.20;61.20;;;;;;5074586;28;20438;-55
2020/12/21 00:04:55;;;;;;;6.90;3.77;;;15.20;61.20;;;;;;5074642;28;20461;-53
2020/12/21 00:07:21;;;;;;;11.27;4.10;;;15.20;61.30;;;;;;5074576;28;20465;-54
2020/12/21 00:09:49;;;;;;;6.67;3.57;;;15.20;62.00;;;;;;5073655;28;20569;-52
2020/12/21 00:12:16;;;;;;;8.60;3.63;;;15.10;61.30;;;;;;5079655;28;20523;-54
2020/12/21 00:14:43;;;;;;;6.57;3.40;;;15.20;61.30;;;;;;5094640;28;20429;-54
2020/12/21 00:17:09;;;;;;;9.00;4.00;;;15.20;61.30;;;;;;5094740;28;20468;-56
2020/12/21 00:19:36;;;;;;;9.80;3.73;;;15.20;61.20;;;;;;5094535;28;20425;-54
2020/12/21 00:22:04;;;;;;;6.97;3.20;;;15.10;61.30;;;;;;5094329;28;20441;-56
2020/12/21 00:24:31;;;;;;;8.27;3.50;;;15.10;61.50;;;;;;5094687;28;20458;-55
2020/12/21 00:26:59;;;;;;;6.43;3.43;;;15.00;61.60;;;;;;5094632;28;20433;-51
2020/12/21 00:29:25;;;;;;;12.30;3.40;;;15.20;61.40;;;;;;5094245;28;20556;-54
2020/12/21 00:31:52;;;;;;;6.80;3.30;;;15.20;61.00;;;;;;5093651;28;20483;-54
2020/12/21 00:34:19;;;;;;;6.87;3.57;;;15.20;61.00;;;;;;5094599;28;20532;-56
2020/12/21 00:36:49;;;;;;;7.90;3.30;;;15.00;61.50;;;;;;5094236;28;20436;-54
2020/12/21 00:39:16;;;;;;;6.33;3.63;;;15.00;61.60;;;;;;5093551;28;20433;-53
2020/12/21 00:41:43;;;;;;;5.30;2.90;;;15.10;61.50;;;;;;5094031;28;20487;-53
2020/12/21 00:44:11;;;;;;;7.00;3.53;;;15.00;61.50;;;;;;5094021;28;20472;-55
2020/12/21 00:46:38;;;;;;;5.73;3.47;;;15.00;61.70;;;;;;5094339;28;20444;-54
2020/12/21 00:49:05;;;;;;;8.87;3.33;;;15.00;61.70;;;;;;5077102;28;20529;-56
2020/12/21 00:51:32;;;;;;;10.97;3.17;;;15.00;61.80;;;;;;5073714;28;20469;-56
2020/12/21 00:53:58;;;;;;;9.97;3.23;;;15.00;61.70;;;;;;5074305;28;20473;-52
2020/12/21 00:56:25;;;;;;;7.80;3.17;;;15.00;61.50;;;;;;5077087;28;20468;-53
2020/12/21 00:58:52;;;;;;;9.07;3.30;;;15.10;61.70;;;;;;5077907;28;20434;-55
2020/12/21 01:01:21;;;;;;;4.60;3.10;;;15.10;61.40;;;;;;5077108;28;20506;-50
2020/12/21 01:04:03;;;;;;;7.00;3.27;;;15.10;61.50;;;;;;5079166;28;20413;-55
2020/12/21 01:06:31;;;;;;;6.73;3.57;;;15.00;61.60;;;;;;5092338;28;20436;-54
2020/12/21 01:08:58;;;;;;;6.37;3.10;;;15.00;61.70;;;;;;5092566;28;20472;-56
2020/12/21 01:11:28;;;;;;;10.00;3.77;;;15.00;61.70;;;;;;5071486;28;20563;-55
2020/12/21 01:13:55;;;;;;;6.50;3.40;;;15.00;61.60;;;;;;5076861;28;20453;-55
2020/12/21 01:16:23;;;;;;;9.90;3.70;;;15.00;61.50;;;;;;5077173;28;20462;-55
2020/12/21 01:18:50;;;;;;;9.27;3.20;;;15.10;61.40;;;;;;5077220;28;20448;-53
2020/12/21 01:21:25;;;;;;;6.03;3.30;;;15.00;61.50;;;;;;5076444;28;20461;-54
2020/12/21 01:23:53;;;;;;;6.47;3.13;;;15.10;61.70;;;;;;5076748;28;20468;-56
2020/12/21 01:26:19;;;;;;;5.00;3.00;;;15.00;61.70;;;;;;5076559;28;20466;-50
2020/12/21 01:28:48;;;;;;;8.53;2.80;;;15.00;61.60;;;;;;5076789;28;20532;-51
2020/12/21 01:31:16;;;;;;;6.50;3.17;;;15.10;61.50;;;;;;5075940;28;20507;-51
2020/12/21 01:33:44;;;;;;;5.57;2.77;;;15.00;61.60;;;;;;5097160;28;20431;-55
2020/12/21 01:36:11;;;;;;;6.10;2.70;;;14.90;61.80;;;;;;5097125;28;20464;-54
2020/12/21 01:38:38;;;;;;;6.20;2.90;;;15.00;61.90;;;;;;5096956;28;20512;-55
2020/12/21 01:41:05;;;;;;;8.73;2.97;;;15.00;61.90;;;;;;5096114;28;20500;-55
2020/12/21 01:43:32;;;;;;;12.83;3.37;;;15.00;62.50;;;;;;5097159;28;20419;-55
2020/12/21 01:46:00;;;;;;;6.20;3.17;;;14.90;61.80;;;;;;5097147;28;20440;-54
2020/12/21 01:48:28;;;;;;;5.53;3.13;;;14.90;61.90;;;;;;5096908;28;20523;-56
2020/12/21 01:50:56;;;;;;;6.70;3.07;;;14.90;61.90;;;;;;5095436;28;20533;-52
2020/12/21 01:53:22;;;;;;;7.17;2.93;;;15.00;62.00;;;;;;5097179;28;20461;-56
2020/12/21 01:55:49;;;;;;;5.73;2.67;;;15.00;62.00;;;;;;5096200;28;20547;-54
2020/12/21 01:58:16;;;;;;;3.23;2.77;;;14.90;61.90;;;;;;5092616;28;20509;-55
2020/12/21 02:00:43;;;;;;;5.13;2.83;;;15.00;62.00;;;;;;5076085;28;20540;-52
2020/12/21 02:03:11;;;;;;;5.73;2.90;;;15.00;61.90;;;;;;5076433;28;20429;-54
2020/12/21 02:05:38;;;;;;;6.30;3.30;;;14.90;62.00;;;;;;5075924;28;20496;-52
2020/12/21 02:08:06;;;;;;;7.50;3.40;;;14.90;62.10;;;;;;5075988;28;20446;-54
2020/12/21 02:10:33;;;;;;;8.30;3.20;;;14.90;62.30;;;;;;5087696;28;20465;-54
2020/12/21 02:12:59;;;;;;;7.20;3.03;;;14.90;62.10;;;;;;5090491;28;20434;-54
2020/12/21 02:15:26;;;;;;;4.43;2.40;;;14.90;62.20;;;;;;5093071;28;20457;-54
2020/12/21 02:17:53;;;;;;;7.57;3.30;;;14.90;62.10;;;;;;5095231;28;20462;-55
2020/12/21 02:20:27;;;;;;;5.53;2.53;;;14.80;62.40;;;;;;5090968;28;20471;-55
2020/12/21 02:22:54;;;;;;;6.30;3.00;;;14.80;62.40;;;;;;5095761;28;20451;-56
2020/12/21 02:25:21;;;;;;;5.60;2.70;;;14.90;62.30;;;;;;5095221;28;20466;-56
2020/12/21 02:27:47;;;;;;;6.13;2.90;;;14.90;62.10;;;;;;5095729;28;20523;-51
2020/12/21 02:30:14;;;;;;;6.87;2.53;;;15.00;62.10;;;;;;5095182;28;20557;-51
2020/12/21 02:32:41;;;;;;;5.57;3.07;;;14.90;61.90;;;;;;5095611;28;20457;-52
2020/12/21 02:35:08;;;;;;;4.60;2.93;;;15.00;62.00;;;;;;5079970;28;20489;-54
2020/12/21 02:37:36;;;;;;;4.57;2.87;;;15.00;61.90;;;;;;5075237;28;20505;-50
2020/12/21 02:40:04;;;;;;;9.00;3.00;;;14.90;61.80;;;;;;5075127;28;20452;-54
2020/12/21 02:42:31;;;;;;;3.53;2.80;;;14.90;61.70;;;;;;5079433;28;20470;-54
2020/12/21 02:44:58;;;;;;;3.83;2.80;;;14.90;62.00;;;;;;5087537;28;20481;-53
2020/12/21 02:47:25;;;;;;;11.57;3.40;;;14.90;62.00;;;;;;5078242;28;20473;-54
2020/12/21 02:49:51;;;;;;;7.03;2.70;;;14.90;62.00;;;;;;5074757;28;20483;-51
2020/12/21 02:52:18;;;;;;;6.03;2.70;;;14.90;62.00;;;;;;5086203;28;20441;-52
2020/12/21 02:54:47;;;;;;;3.53;2.50;;;14.90;62.10;;;;;;5095619;28;20436;-54
2020/12/21 02:57:13;;;;;;;6.47;2.73;;;14.80;62.10;;;;;;5095860;28;20494;-54
2020/12/21 02:59:42;;;;;;;2.90;2.60;;;14.90;62.00;;;;;;5094825;28;20415;-53
2020/12/21 03:02:09;;;;;;;9.93;3.10;;;14.90;61.90;;;;;;5075789;28;20473;-55
2020/12/21 03:04:35;;;;;;;5.97;3.10;;;14.90;61.90;;;;;;5075579;28;20472;-55
2020/12/21 03:07:02;;;;;;;5.80;2.67;;;14.80;61.90;;;;;;5075426;28;20529;-54
2020/12/21 03:09:29;;;;;;;10.13;2.47;;;14.80;61.90;;;;;;5082121;28;20443;-53
2020/12/21 03:11:57;;;;;;;3.90;2.67;;;14.80;61.90;;;;;;5094795;28;20468;-54
2020/12/21 03:14:24;;;;;;;5.33;2.77;;;14.80;61.90;;;;;;5095245;28;20509;-55
2020/12/21 03:16:51;;;;;;;7.80;3.17;;;14.80;61.90;;;;;;5095391;28;20441;-55
2020/12/21 03:19:18;;;;;;;8.30;3.03;;;14.80;62.00;;;;;;5079182;28;20468;-53
2020/12/21 03:21:45;;;;;;;5.40;3.00;;;14.80;61.90;;;;;;5074246;28;20488;-54
2020/12/21 03:24:12;;;;;;;5.43;2.87;;;14.80;61.80;;;;;;5074938;28;20426;-55
2020/12/21 03:26:39;;;;;;;6.20;2.80;;;14.80;61.70;;;;;;5075107;28;20465;-53
2020/12/21 03:29:07;;;;;;;6.73;2.87;;;14.80;61.80;;;;;;5074663;28;20433;-55
2020/12/21 03:31:34;;;;;;;6.43;3.00;;;14.80;61.70;;;;;;5074073;28;20571;-55
2020/12/21 03:34:01;;;;;;;3.90;2.80;;;14.80;61.80;;;;;;5074840;28;20507;-53
2020/12/21 03:36:28;;;;;;;5.70;3.53;;;14.80;61.80;;;;;;5085705;28;20512;-54
2020/12/21 03:38:54;;;;;;;5.00;2.60;;;14.80;61.80;;;;;;5095066;28;20566;-56
2020/12/21 03:41:21;;;;;;;4.87;3.27;;;14.80;61.80;;;;;;5094432;28;20529;-55
2020/12/21 03:43:48;;;;;;;4.63;2.57;;;14.80;61.60;;;;;;5095097;28;20433;-52
2020/12/21 03:46:15;;;;;;;5.80;2.87;;;14.70;61.70;;;;;;5094275;28;20449;-55
2020/12/21 03:48:42;;;;;;;5.77;2.70;;;14.80;61.80;;;;;;5094705;28;20448;-52
2020/12/21 03:51:09;;;;;;;8.70;2.77;;;14.80;61.80;;;;;;5094222;28;20522;-55
2020/12/21 03:53:37;;;;;;;3.00;2.40;;;14.70;61.60;;;;;;5094248;28;20469;-51
2020/12/21 03:56:04;;;;;;;6.23;2.87;;;14.70;61.60;;;;;;5074977;28;20473;-50
2020/12/21 03:58:31;;;;;;;4.43;2.57;;;14.80;61.50;;;;;;5092718;28;20429;-54
2020/12/21 04:01:00;;;;;;;6.27;2.60;;;14.70;61.50;;;;;;5094006;28;20452;-55
2020/12/21 04:03:28;;;;;;;6.93;2.83;;;14.70;61.60;;;;;;5094847;28;20484;-54
2020/12/21 04:05:55;;;;;;;5.77;3.20;;;14.60;61.60;;;;;;5094907;28;20472;-55
2020/12/21 04:08:21;;;;;;;4.33;2.37;;;14.60;61.70;;;;;;5094834;28;20512;-56
2020/12/21 04:10:48;;;;;;;7.17;2.80;;;14.60;61.70;;;;;;5092190;28;20561;-55
2020/12/21 04:13:16;;;;;;;4.90;2.67;;;14.60;61.70;;;;;;5074387;28;20540;-55
2020/12/21 04:16:02;;;;;;;9.37;2.60;;;14.60;61.60;;;;;;5074573;28;20422;-55
2020/12/21 04:18:30;;;;;;;5.93;2.70;;;14.60;61.50;;;;;;5074598;28;20525;-56
2020/12/21 04:20:57;;;;;;;4.07;2.73;;;14.60;61.40;;;;;;5086701;28;20442;-56
2020/12/21 04:23:24;;;;;;;4.20;2.97;;;14.60;61.40;;;;;;5094713;28;20532;-51
2020/12/21 04:26:02;;;;;;;4.50;2.70;;;14.60;61.40;;;;;;5094851;28;20478;-54
2020/12/21 04:28:30;;;;;;;5.60;2.83;;;14.60;61.40;;;;;;5094425;28;20468;-56
2020/12/21 04:30:59;;;;;;;4.10;2.67;;;14.50;61.40;;;;;;5095834;28;20477;-55
2020/12/21 04:33:26;;;;;;;4.13;3.03;;;14.60;61.50;;;;;;5098424;28;20447;-54
2020/12/21 04:36:08;;;;;;;4.60;2.70;;;14.50;61.70;;;;;;5098517;28;20417;-55
2020/12/21 04:38:34;;;;;;;4.13;2.53;;;14.50;61.50;;;;;;5086331;28;20501;-55
2020/12/21 04:41:01;;;;;;;9.77;2.50;;;14.50;61.60;;;;;;5077530;28;20461;-55
2020/12/21 04:43:28;;;;;;;4.73;2.77;;;14.50;61.60;;;;;;5077971;28;20521;-53
2020/12/21 04:45:55;;;;;;;3.30;2.90;;;14.40;61.50;;;;;;5077919;28;20437;-53
2020/12/21 04:48:23;;;;;;;3.83;2.50;;;14.40;61.50;;;;;;5097911;28;20437;-54
2020/12/21 04:50:51;;;;;;;7.37;2.67;;;14.50;61.40;;;;;;5097270;28;20511;-54
2020/12/21 04:53:19;;;;;;;7.63;2.97;;;14.50;62.00;;;;;;5097873;28;20471;-56
2020/12/21 04:55:46;;;;;;;5.17;2.20;;;14.50;61.30;;;;;;5097937;28;20500;-56
2020/12/21 04:58:13;;;;;;;5.63;2.90;;;14.50;61.30;;;;;;5098003;28;20433;-55
2020/12/21 05:00:41;;;;;;;5.50;2.80;;;14.40;61.50;;;;;;5097501;28;20433;-54
2020/12/21 05:03:08;;;;;;;6.50;2.70;;;14.40;61.50;;;;;;5097984;28;20440;-52
2020/12/21 05:05:36;;;;;;;4.70;2.87;;;14.40;61.40;;;;;;5096979;28;20472;-55
2020/12/21 05:08:09;;;;;;;4.50;2.60;;;14.40;62.20;;;;;;5097358;28;20444;-55
2020/12/21 05:10:37;;;;;;;5.17;3.00;;;14.30;61.40;;;;;;5097247;28;20563;-55
2020/12/21 05:13:04;;;;;;;6.17;2.63;;;14.30;61.40;;;;;;5097528;28;20494;-55
2020/12/21 05:15:31;;;;;;;8.07;2.87;;;14.30;61.20;;;;;;5097982;28;20461;-56
2020/12/21 05:18:03;;;;;;;6.80;2.87;;;14.30;61.30;;;;;;5097336;28;20473;-56
2020/12/21 05:20:30;;;;;;;5.63;2.77;;;14.30;61.40;;;;;;5097045;28;20443;-54
2020/12/21 05:22:56;;;;;;;4.70;2.83;;;14.30;61.40;;;;;;5096893;28;20462;-55
2020/12/21 05:25:23;;;;;;;5.57;2.63;;;14.30;61.40;;;;;;5097256;28;20455;-54
2020/12/21 05:27:51;;;;;;;4.10;2.40;;;14.30;61.20;;;;;;5097121;28;20536;-52
2020/12/21 05:30:18;;;;;;;3.00;2.33;;;14.30;61.10;;;;;;5096526;28;20564;-55
2020/12/21 05:32:44;;;;;;;5.47;2.87;;;14.30;61.40;;;;;;5076573;28;20434;-54
2020/12/21 05:35:11;;;;;;;3.20;2.37;;;14.30;61.30;;;;;;5076928;28;20535;-54
2020/12/21 05:37:38;;;;;;;4.93;2.50;;;14.20;61.30;;;;;;5077055;28;20446;-54
2020/12/21 05:40:06;;;;;;;3.80;2.43;;;14.20;61.30;;;;;;5084446;28;20509;-54
2020/12/21 05:42:34;;;;;;;7.40;2.77;;;14.20;61.20;;;;;;5096785;28;20428;-54
2020/12/21 05:45:03;;;;;;;3.93;2.83;;;14.20;61.20;;;;;;5096743;28;20532;-55
2020/12/21 05:47:30;;;;;;;4.53;2.47;;;14.20;61.30;;;;;;5096669;28;20479;-55
2020/12/21 05:49:58;;;;;;;3.97;3.00;;;14.20;61.00;;;;;;5096466;28;20460;-52
2020/12/21 05:52:32;;;;;;;4.13;2.37;;;14.20;61.10;;;;;;5096768;28;20538;-54
2020/12/21 05:55:03;;;;;;;8.10;2.90;;;14.20;61.00;;;;;;5096478;28;20418;-56
2020/12/21 05:57:30;;;;;;;4.43;2.47;;;14.20;61.00;;;;;;5096205;28;20476;-56
2020/12/21 05:59:58;;;;;;;5.00;2.70;;;14.20;61.00;;;;;;5095631;28;20549;-55
2020/12/21 06:02:26;;;;;;;5.13;2.30;;;14.10;61.20;;;;;;5096109;28;20469;-57
2020/12/21 06:04:59;;;;;;;5.00;2.53;;;14.20;61.30;;;;;;5096309;28;20509;-51
2020/12/21 06:07:26;;;;;;;4.77;2.80;;;14.10;61.10;;;;;;5095354;28;20453;-50
2020/12/21 06:09:52;;;;;;;6.30;2.67;;;14.10;61.20;;;;;;5088690;28;20455;-53
2020/12/21 06:12:20;;;;;;;4.87;2.63;;;14.10;61.30;;;;;;5084045;28;20500;-55
2020/12/21 06:14:47;;;;;;;6.27;2.77;;;14.10;61.10;;;;;;5076316;28;20492;-55
2020/12/21 06:17:14;;;;;;;5.77;3.07;;;14.10;60.90;;;;;;5076090;28;20433;-56
2020/12/21 06:19:42;;;;;;;6.77;2.70;;;14.00;61.00;;;;;;5075398;28;20521;-55
2020/12/21 06:22:09;;;;;;;4.40;2.53;;;14.10;61.00;;;;;;5076087;28;20473;-53
2020/12/21 06:24:38;;;;;;;6.80;3.20;;;14.00;60.90;;;;;;5085914;28;20436;-54
2020/12/21 06:27:22;;;;;;;6.07;2.83;;;14.00;61.00;;;;;;5096195;28;20428;-55
2020/12/21 06:29:58;;;;;;;5.17;2.40;;;14.00;61.10;;;;;;5095512;28;20524;-51
2020/12/21 06:32:29;;;;;;;5.17;2.40;;;14.00;61.00;;;;;;5094084;28;20521;-56
2020/12/21 06:34:57;;;;;;;6.30;2.57;;;14.00;61.10;;;;;;5075840;28;20461;-54
2020/12/21 06:37:24;;;;;;;8.80;2.67;;;14.00;61.00;;;;;;5075555;28;20516;-55
2020/12/21 06:39:57;;;;;;;3.50;2.30;;;13.90;60.90;;;;;;5075090;28;20442;-55
2020/12/21 06:42:25;;;;;;;6.70;2.87;;;13.90;60.80;;;;;;5086539;28;20520;-56
2020/12/21 06:44:54;;;;;;;7.67;3.30;;;13.90;60.80;;;;;;5095568;28;20444;-55
2020/12/21 06:47:22;;;;;;;5.07;2.93;;;13.90;60.80;;;;;;5095566;28;20456;-52
2020/12/21 06:49:49;;;;;;;8.53;3.43;;;13.90;60.80;;;;;;5095265;28;20432;-54
2020/12/21 06:52:17;;;;;;;5.20;2.77;;;13.90;60.70;;;;;;5075539;28;20545;-52
2020/12/21 06:54:44;;;;;;;5.43;2.63;;;13.90;60.60;;;;;;5074674;28;20536;-52
2020/12/21 06:57:11;;;;;;;7.93;3.03;;;13.90;60.70;;;;;;5075231;28;20524;-57
2020/12/21 06:59:38;;;;;;;5.07;3.13;;;13.90;60.60;;;;;;5081764;28;20469;-56
2020/12/21 07:02:05;;;;;;;4.70;2.77;;;13.90;60.70;;;;;;5094961;28;20465;-52
2020/12/21 07:04:33;;;;;;;8.37;3.17;;;13.90;60.60;;;;;;5095440;28;20440;-56
2020/12/21 07:07:03;;;;;;;8.20;2.90;;;13.80;60.60;;;;;;5095034;28;20536;-57
2020/12/21 07:09:31;;;;;;;5.40;2.97;;;13.80;60.80;;;;;;5094933;28;20436;-55
2020/12/21 07:11:59;;;;;;;6.00;3.10;;;13.70;60.70;;;;;;5094583;28;20546;-56
2020/12/21 07:14:27;;;;;;;7.67;3.20;;;13.70;60.70;;;;;;5095245;28;20444;-56
2020/12/21 07:17:04;;;;;;;4.43;3.00;;;13.70;60.70;;;;;;5094778;28;20457;-51
2020/12/21 07:19:35;;;;;;;5.17;3.30;;;13.70;60.60;;;;;;5095203;28;20440;-49
2020/12/21 07:22:02;;;;;;;6.17;3.33;;;13.80;60.50;;;;;;5095065;28;20417;-50
2020/12/21 07:24:34;;;;;;;7.00;3.40;;;13.80;60.40;;;;;;5094886;28;20472;-48
2020/12/21 07:27:01;;;;;;;6.70;3.30;;;13.80;60.40;;;;;;5094834;28;20480;-56
2020/12/21 07:29:32;;;;;;;8.77;4.07;;;13.70;60.40;;;;;;5094691;28;20440;-51
2020/12/21 07:31:59;;;;;;;5.60;3.90;;;13.70;60.60;;;;;;5094329;28;20525;-51
2020/12/21 07:34:26;;;;;;;4.83;3.23;;;13.70;60.50;;;;;;5092721;28;20432;-53
2020/12/21 07:36:52;;;;;;;7.27;3.90;;;13.70;60.40;;;;;;5080071;28;20461;-50
2020/12/21 07:39:19;;;;;;;6.60;3.03;;;13.70;60.30;;;;;;5079244;28;20608;-59
2020/12/21 07:41:48;;;;;;;5.43;3.43;;;13.80;63.00;;;;;;5087475;28;20482;-53
2020/12/21 07:44:15;;;;;;;8.60;3.77;;;14.40;67.10;;;;;;5088889;28;20444;-54
2020/12/21 07:46:44;;;;;;;6.20;3.40;;;14.50;68.10;;;;;;5094595;28;20445;-52
2020/12/21 07:49:11;;;;;;;15.80;2.93;;;14.30;67.60;;;;;;5094600;28;20532;-52
2020/12/21 07:51:39;;;;;;;6.30;3.13;;;14.10;67.10;;;;;;5093728;28;20496;-52
2020/12/21 07:54:06;;;;;;;7.07;3.67;;;14.10;66.80;;;;;;5094487;28;20449;-48
2020/12/21 07:56:33;;;;;;;4.73;2.93;;;14.00;66.60;;;;;;5094457;28;20447;-50
2020/12/21 07:59:12;;;;;;;8.63;3.47;;;14.00;66.30;;;;;;5094432;28;20539;-51
2020/12/21 08:01:40;;;;;;;9.13;3.53;;;14.10;65.80;;;;;;5093446;28;20424;-48
2020/12/21 08:04:15;;;;;;;5.47;3.60;;;14.00;65.50;;;;;;5094817;28;20523;-55
2020/12/21 08:06:44;;;;;;;8.53;3.70;;;13.90;65.30;;;;;;5098437;28;20450;-53
2020/12/21 08:09:11;;;;;;;10.30;3.80;;;13.90;65.30;;;;;;5098236;28;20427;-53
2020/12/21 08:11:37;;;;;;;5.60;3.10;;;13.90;65.20;;;;;;5080935;28;20537;-54
2020/12/21 08:14:06;;;;;;;7.03;3.40;;;13.90;65.10;;;;;;5078290;28;20430;-54
2020/12/21 08:16:34;;;;;;;9.43;3.67;;;13.90;65.00;;;;;;5077891;28;20441;-55
2020/12/21 08:19:01;;;;;;;7.50;3.47;;;13.80;64.80;;;;;;5082999;28;20475;-54
2020/12/21 08:21:30;;;;;;;6.90;3.63;;;13.90;64.80;;;;;;5097662;28;20523;-56
2020/12/21 08:23:58;;;;;;;10.50;3.90;;;13.80;64.80;;;;;;5098108;28;20483;-52
2020/12/21 08:26:25;;;;;;;5.00;3.03;;;13.90;64.60;;;;;;5097981;28;20440;-55
2020/12/21 08:28:52;;;;;;;5.07;3.30;;;13.80;64.50;;;;;;5097665;28;20476;-52
2020/12/21 08:31:19;;;;;;;5.77;3.63;;;13.90;64.30;;;;;;5097540;28;20469;-54
2020/12/21 08:33:58;;;;;;;11.97;3.83;;;13.80;64.00;;;;;;5097933;28;20638;-54
2020/12/21 08:36:26;;;;;;;7.50;3.03;;;13.90;63.90;;;;;;5095984;28;20485;-54
2020/12/21 08:38:53;;;;;;;7.13;3.50;;;13.90;64.00;;;;;;5077709;28;20476;-54
2020/12/21 08:41:20;;;;;;;8.27;3.33;;;14.00;63.80;;;;;;5077008;28;20497;-54
2020/12/21 08:43:47;;;;;;;6.67;3.37;;;14.00;63.80;;;;;;5077286;28;20433;-58
2020/12/21 08:46:14;;;;;;;8.20;3.70;;;13.90;63.80;;;;;;5087948;28;20440;-52
2020/12/21 08:48:43;;;;;;;7.90;3.53;;;13.90;63.80;;;;;;5097504;28;20444;-50
2020/12/21 08:51:11;;;;;;;8.90;3.73;;;14.00;63.80;;;;;;5096975;28;20522;-53
2020/12/21 08:53:57;;;;;;;10.33;4.17;;;14.00;63.80;;;;;;5097120;28;20432;-54
2020/12/21 08:56:24;;;;;;;9.00;4.17;;;14.10;63.60;;;;;;5097318;28;20457;-56
2020/12/21 08:58:51;;;;;;;5.40;2.83;;;14.20;63.50;;;;;;5097520;28;20521;-56
2020/12/21 09:01:18;;;;;;;5.50;3.43;;;14.30;63.40;;;;;;5097211;28;20449;-51
2020/12/21 09:03:46;;;;;;;8.03;3.27;;;14.50;63.00;;;;;;5097122;28;20448;-53
2020/12/21 09:06:18;;;;;;;6.07;3.23;;;14.50;63.00;;;;;;5097724;28;20436;-55
2020/12/21 09:08:55;;;;;;;6.17;3.43;;;14.60;63.10;;;;;;5097257;28;20428;-52
2020/12/21 09:11:22;;;;;;;6.10;3.20;;;14.70;62.70;;;;;;5096558;28;20553;-56
2020/12/21 09:13:49;;;;;;;12.57;3.83;;;14.90;62.60;;;;;;5096978;28;20441;-53
2020/12/21 09:16:21;;;;;;;6.37;3.27;;;14.90;62.30;;;;;;5096969;28;20417;-53
2020/12/21 09:18:48;;;;;;;6.60;3.37;;;15.00;62.00;;;;;;5097346;28;20472;-54
2020/12/21 09:21:20;;;;;;;7.10;3.40;;;15.10;61.80;;;;;;5096081;28;20437;-56
2020/12/21 09:23:47;;;;;;;9.17;3.57;;;15.30;61.50;;;;;;5097336;28;20468;-53
2020/12/21 09:26:14;;;;;;;5.97;3.37;;;15.30;61.40;;;;;;5096806;28;20437;-55
2020/12/21 09:28:42;;;;;;;6.30;3.40;;;15.30;61.50;;;;;;5097230;28;20447;-53
2020/12/21 09:31:09;;;;;;;6.53;3.30;;;15.20;61.50;;;;;;5095438;28;20473;-53
2020/12/21 09:33:36;;;;;;;9.57;3.20;;;15.30;61.40;;;;;;5096721;28;20433;-53
2020/12/21 09:36:03;;;;;;;6.23;3.27;;;15.30;61.40;;;;;;5097259;28;20437;-52
2020/12/21 09:38:30;;;;;;;6.60;2.90;;;15.30;61.40;;;;;;5093629;28;20445;-52
2020/12/21 09:40:57;;;;;;;8.00;3.20;;;15.30;61.40;;;;;;5075800;28;20442;-52
2020/12/21 09:43:24;;;;;;;10.83;3.50;;;15.40;61.10;;;;;;5076493;28;20521;-55
2020/12/21 09:45:51;;;;;;;8.70;3.20;;;15.50;60.90;;;;;;5076953;28;20437;-54
2020/12/21 09:48:18;;;;;;;7.27;3.43;;;15.50;60.70;;;;;;5076982;28;20446;-52
2020/12/21 09:50:45;;;;;;;9.50;3.20;;;15.50;60.80;;;;;;5075960;28;20416;-55
2020/12/21 09:53:12;;;;;;;6.00;3.30;;;15.50;60.80;;;;;;5076394;28;20494;-52
2020/12/21 09:55:44;;;;;;;5.67;3.03;;;15.80;60.50;;;;;;5085023;28;20433;-51
2020/12/21 09:58:18;;;;;;;6.80;3.03;;;16.20;59.70;;;;;;5076527;28;20429;-54
2020/12/21 10:00:46;;;;;;;8.73;2.60;;;16.50;59.00;;;;;;5081512;28;20441;-57
2020/12/21 10:03:13;;;;;;;6.83;2.70;;;16.80;58.50;;;;;;5083697;28;20476;-57
2020/12/21 10:05:40;;;;;;;7.27;2.80;;;17.30;58.00;;;;;;5093144;28;20493;-56
2020/12/21 10:08:07;;;;;;;5.80;2.60;;;17.60;57.30;;;;;;5096121;28;20527;-57
2020/12/21 10:10:33;;;;;;;5.50;2.80;;;17.90;56.70;;;;;;5095871;28;20508;-53
2020/12/21 10:13:01;;;;;;;7.40;2.97;;;18.20;56.40;;;;;;5096173;28;20530;-55
2020/12/21 10:15:29;;;;;;;6.20;2.43;;;18.40;56.00;;;;;;5079773;28;20449;-55
2020/12/21 10:17:56;;;;;;;6.93;2.53;;;18.60;55.70;;;;;;5076177;28;20430;-55
2020/12/21 10:20:22;;;;;;;6.17;2.80;;;18.70;55.40;;;;;;5075393;28;20475;-54
2020/12/21 10:22:49;;;;;;;8.70;2.70;;;18.80;55.10;;;;;;5080076;28;20428;-54
2020/12/21 10:25:16;;;;;;;6.27;2.50;;;18.90;55.20;;;;;;5096324;28;20505;-55
2020/12/21 10:27:43;;;;;;;5.50;2.47;;;19.10;55.00;;;;;;5095075;28;20437;-56
2020/12/21 10:30:11;;;;;;;6.10;2.30;;;19.30;54.70;;;;;;5095772;28;20437;-55
2020/12/21 10:32:38;;;;;;;4.40;2.47;;;19.50;54.40;;;;;;5083925;28;20474;-56
2020/12/21 10:35:05;;;;;;;8.57;2.47;;;19.70;54.20;;;;;;5076023;28;20433;-53
2020/12/21 10:37:32;;;;;;;5.47;2.40;;;19.90;53.90;;;;;;5075569;28;20502;-57
2020/12/21 10:39:59;;;;;;;6.13;2.60;;;20.00;53.60;;;;;;5074843;28;20441;-55
2020/12/21 10:42:26;;;;;;;3.63;2.17;;;20.10;53.50;;;;;;5095096;28;20437;-57
2020/12/21 10:44:52;;;;;;;7.07;2.90;;;20.30;53.20;;;;;;5095954;28;20421;-57
2020/12/21 10:47:20;;;;;;;3.70;2.23;;;20.50;52.80;;;;;;5095290;28;20444;-57
2020/12/21 10:49:47;;;;;;;2.73;2.47;;;20.70;52.60;;;;;;5087482;28;20465;-57
2020/12/21 10:52:14;;;;;;;5.13;2.27;;;20.70;52.20;;;;;;5074658;28;20549;-56
2020/12/21 10:54:42;;;;;;;5.90;2.77;;;20.50;52.60;;;;;;5075288;28;20445;-58
2020/12/21 10:57:09;;;;;;;5.63;2.30;;;20.70;52.60;;;;;;5075397;28;20446;-58
2020/12/21 10:59:36;;;;;;;5.80;2.50;;;20.80;52.40;;;;;;5090429;28;20528;-54
2020/12/21 11:02:03;;;;;;;3.83;1.90;;;20.90;52.10;;;;;;5095742;28;20528;-54
2020/12/21 11:04:30;;;;;;;3.77;2.03;;;20.90;51.90;;;;;;5095592;28;20451;-51
2020/12/21 11:06:57;;;;;;;7.20;2.10;;;20.70;52.10;;;;;;5095291;28;20437;-54
2020/12/21 11:09:24;;;;;;;4.70;1.93;;;20.20;52.80;;;;;;5095410;28;20436;-57
2020/12/21 11:11:51;;;;;;;5.60;2.20;;;19.90;53.70;;;;;;5095024;28;20491;-55
2020/12/21 11:14:18;;;;;;;4.80;2.37;;;19.50;54.30;;;;;;5095112;28;20494;-50
2020/12/21 11:16:49;;;;;;;7.30;3.33;;;19.20;54.80;;;;;;5094459;28;20468;-52
2020/12/21 11:19:15;;;;;;;5.80;2.37;;;19.00;55.40;;;;;;5095201;28;20504;-49
2020/12/21 11:21:43;;;;;;;3.00;2.10;;;18.80;55.50;;;;;;5094417;28;20445;-52
2020/12/21 11:24:10;;;;;;;4.70;2.27;;;18.70;55.90;;;;;;5095060;28;20521;-57
2020/12/21 11:26:37;;;;;;;4.20;1.80;;;18.50;56.10;;;;;;5094682;28;20415;-52
2020/12/21 11:29:05;;;;;;;6.33;2.23;;;18.30;56.20;;;;;;5095006;28;20433;-57
2020/12/21 11:31:33;;;;;;;5.83;2.40;;;18.10;56.50;;;;;;5094012;28;20512;-58
2020/12/21 11:33:59;;;;;;;8.27;2.50;;;17.90;56.80;;;;;;5087478;28;20415;-56
2020/12/21 11:36:26;;;;;;;3.00;2.17;;;17.90;57.10;;;;;;5074202;28;20544;-57
2020/12/21 11:38:54;;;;;;;3.80;2.20;;;17.80;57.10;;;;;;5074605;28;20452;-53
2020/12/21 11:41:21;;;;;;;4.23;2.70;;;17.70;57.40;;;;;;5073976;28;20471;-56
2020/12/21 11:43:48;;;;;;;3.73;2.10;;;17.70;57.30;;;;;;5075326;28;20503;-56
2020/12/21 11:46:15;;;;;;;2.80;2.03;;;17.60;57.30;;;;;;5074993;28;20445;-54
2020/12/21 11:48:42;;;;;;;4.57;2.20;;;17.50;57.40;;;;;;5074598;28;20536;-51
2020/12/21 11:51:10;;;;;;;4.87;2.27;;;17.40;57.40;;;;;;5074478;28;20450;-56
2020/12/21 11:53:37;;;;;;;9.30;2.87;;;17.40;57.30;;;;;;5074684;28;20473;-56
2020/12/21 11:56:05;;;;;;;5.47;2.17;;;17.30;57.20;;;;;;5091064;28;20440;-52
2020/12/21 11:58:32;;;;;;;4.73;2.30;;;17.30;57.40;;;;;;5092147;28;20468;-57
2020/12/21 12:00:59;;;;;;;5.30;1.93;;;17.30;57.20;;;;;;5094015;28;20519;-56
2020/12/21 12:03:27;;;;;;;8.50;2.43;;;17.20;57.20;;;;;;5094661;28;20429;-54
2020/12/21 12:05:53;;;;;;;6.07;2.33;;;17.20;57.20;;;;;;5094475;28;20532;-56
2020/12/21 12:08:20;;;;;;;5.40;2.37;;;17.20;57.00;;;;;;5094401;28;20540;-56
2020/12/21 12:10:47;;;;;;;4.63;2.20;;;17.10;57.10;;;;;;5093794;28;20448;-57
2020/12/21 12:13:15;;;;;;;3.50;2.00;;;17.10;57.10;;;;;;5094499;28;20464;-56
2020/12/21 12:15:42;;;;;;;5.23;2.40;;;17.10;57.10;;;;;;5094669;28;20444;-55
2020/12/21 12:18:11;;;;;;;6.00;2.60;;;17.00;57.20;;;;;;5088364;28;20473;-56
2020/12/21 12:20:38;;;;;;;6.10;2.20;;;16.90;57.10;;;;;;5074240;28;20429;-57
2020/12/21 12:23:05;;;;;;;6.90;2.47;;;16.90;57.10;;;;;;5074159;28;20525;-57
2020/12/21 12:25:32;;;;;;;6.77;2.37;;;16.90;57.10;;;;;;5074621;28;20433;-52
2020/12/21 12:27:59;;;;;;;3.07;2.10;;;16.90;57.10;;;;;;5074152;28;20470;-50
2020/12/21 12:30:27;;;;;;;4.07;1.83;;;16.80;57.20;;;;;;5073632;28;20533;-55
2020/12/21 12:32:54;;;;;;;4.87;2.53;;;16.90;57.10;;;;;;5074044;28;20520;-57
2020/12/21 12:35:21;;;;;;;4.27;1.90;;;16.90;57.00;;;;;;5075695;28;20446;-57
2020/12/21 12:37:47;;;;;;;7.23;2.20;;;16.90;56.90;;;;;;5094118;28;20516;-57
2020/12/21 12:40:15;;;;;;;3.70;2.17;;;16.80;56.90;;;;;;5093227;28;20444;-61
2020/12/21 12:42:42;;;;;;;5.37;2.83;;;16.80;56.90;;;;;;5093637;28;20437;-61
2020/12/21 12:45:09;;;;;;;7.60;2.60;;;16.80;56.90;;;;;;5084439;28;20457;-57
2020/12/21 12:47:37;;;;;;;4.40;3.50;;;16.80;57.00;;;;;;5073974;28;20456;-48